sensor_id;sensor_type;location;lat;lon;timestamp;temperature;humidity
70145;DHT22;57510;51.068;3.872;2022-08-30T00:01:08;18.70;90.90
70145;DHT22;57510;51.068;3.872;2022-08-30T00:03:41;18.70;90.90
70145;DHT22;57510;51.068;3.872;2022-08-30T00:06:09;18.70;91.00
70145;DHT22;57510;51.068;3.872;2022-08-30T00:08:36;18.70;91.20
70145;DHT22;57510;51.068;3.872;2022-08-30T00:11:03;18.70;91.10
70145;DHT22;57510;51.068;3.872;2022-08-30T00:13:29;18.70;91.10
70145;DHT22;57510;51.068;3.872;2022-08-30T00:15:56;18.70;91.00
70145;DHT22;57510;51.068;3.872;2022-08-30T00:18:21;18.70;91.10
70145;DHT22;57510;51.068;3.872;2022-08-30T00:20:48;18.80;91.10
70145;DHT22;57510;51.068;3.872;2022-08-30T00:23:18;18.80;91.00
70145;DHT22;57510;51.068;3.872;2022-08-30T00:25:45;18.80;91.00
70145;DHT22;57510;51.068;3.872;2022-08-30T00:28:12;18.80;91.10
70145;DHT22;57510;51.068;3.872;2022-08-30T00:30:38;18.80;91.00
70145;DHT22;57510;51.068;3.872;2022-08-30T00:33:03;18.80;91.00
70145;DHT22;57510;51.068;3.872;2022-08-30T00:35:29;18.80;90.90
70145;DHT22;57510;51.068;3.872;2022-08-30T00:37:56;18.90;90.80
70145;DHT22;57510;51.068;3.872;2022-08-30T00:40:23;18.90;90.80
70145;DHT22;57510;51.068;3.872;2022-08-30T00:42:49;18.90;90.80
70145;DHT22;57510;51.068;3.872;2022-08-30T00:45:22;18.90;90.80
70145;DHT22;57510;51.068;3.872;2022-08-30T00:47:55;18.80;90.80
70145;DHT22;57510;51.068;3.872;2022-08-30T00:50:22;18.80;90.90
70145;DHT22;57510;51.068;3.872;2022-08-30T00:52:49;18.70;90.90
70145;DHT22;57510;51.068;3.872;2022-08-30T00:55:17;18.70;90.90
70145;DHT22;57510;51.068;3.872;2022-08-30T00:57:44;18.60;90.90
70145;DHT22;57510;51.068;3.872;2022-08-30T01:00:11;18.60;91.00
70145;DHT22;57510;51.068;3.872;2022-08-30T01:02:37;18.50;91.10
70145;DHT22;57510;51.068;3.872;2022-08-30T01:05:05;18.50;91.20
70145;DHT22;57510;51.068;3.872;2022-08-30T01:07:32;18.40;91.20
70145;DHT22;57510;51.068;3.872;2022-08-30T01:09:59;18.40;91.20
70145;DHT22;57510;51.068;3.872;2022-08-30T01:12:25;18.30;91.30
70145;DHT22;57510;51.068;3.872;2022-08-30T01:14:50;18.30;91.50
70145;DHT22;57510;51.068;3.872;2022-08-30T01:17:16;18.20;91.50
70145;DHT22;57510;51.068;3.872;2022-08-30T01:19:44;18.20;91.60
70145;DHT22;57510;51.068;3.872;2022-08-30T01:24:57;18.20;91.60
70145;DHT22;57510;51.068;3.872;2022-08-30T01:27:23;18.20;91.60
70145;DHT22;57510;51.068;3.872;2022-08-30T01:29:50;18.20;91.60
70145;DHT22;57510;51.068;3.872;2022-08-30T01:32:20;18.20;91.70
70145;DHT22;57510;51.068;3.872;2022-08-30T01:34:46;18.20;91.60
70145;DHT22;57510;51.068;3.872;2022-08-30T01:37:14;18.20;91.60
70145;DHT22;57510;51.068;3.872;2022-08-30T01:39:44;18.20;91.60
70145;DHT22;57510;51.068;3.872;2022-08-30T01:42:10;18.20;91.60
70145;DHT22;57510;51.068;3.872;2022-08-30T01:44:35;18.20;91.60
70145;DHT22;57510;51.068;3.872;2022-08-30T01:47:01;18.20;91.60
70145;DHT22;57510;51.068;3.872;2022-08-30T01:49:26;18.20;91.60
70145;DHT22;57510;51.068;3.872;2022-08-30T01:51:52;18.20;91.60
70145;DHT22;57510;51.068;3.872;2022-08-30T01:54:18;18.20;91.60
70145;DHT22;57510;51.068;3.872;2022-08-30T01:56:49;18.10;91.60
70145;DHT22;57510;51.068;3.872;2022-08-30T01:59:14;18.10;91.60
70145;DHT22;57510;51.068;3.872;2022-08-30T02:01:41;18.00;91.60
70145;DHT22;57510;51.068;3.872;2022-08-30T02:04:07;18.00;91.60
70145;DHT22;57510;51.068;3.872;2022-08-30T02:06:33;18.00;91.70
70145;DHT22;57510;51.068;3.872;2022-08-30T02:08:59;17.90;91.70
70145;DHT22;57510;51.068;3.872;2022-08-30T02:11:25;17.90;91.70
70145;DHT22;57510;51.068;3.872;2022-08-30T02:13:51;17.80;91.80
70145;DHT22;57510;51.068;3.872;2022-08-30T02:16:19;17.80;91.80
70145;DHT22;57510;51.068;3.872;2022-08-30T02:18:47;17.70;91.90
70145;DHT22;57510;51.068;3.872;2022-08-30T02:21:13;17.60;92.00
70145;DHT22;57510;51.068;3.872;2022-08-30T02:23:40;17.60;92.10
70145;DHT22;57510;51.068;3.872;2022-08-30T02:26:07;17.60;92.10
70145;DHT22;57510;51.068;3.872;2022-08-30T02:28:32;17.60;92.20
70145;DHT22;57510;51.068;3.872;2022-08-30T02:30:59;17.60;92.20
70145;DHT22;57510;51.068;3.872;2022-08-30T02:33:24;17.60;92.30
70145;DHT22;57510;51.068;3.872;2022-08-30T02:35:50;17.60;92.20
70145;DHT22;57510;51.068;3.872;2022-08-30T02:38:22;17.60;92.20
70145;DHT22;57510;51.068;3.872;2022-08-30T02:40:48;17.60;92.30
70145;DHT22;57510;51.068;3.872;2022-08-30T02:43:14;17.60;92.20
70145;DHT22;57510;51.068;3.872;2022-08-30T02:45:39;17.60;92.50
70145;DHT22;57510;51.068;3.872;2022-08-30T02:48:05;17.50;92.30
70145;DHT22;57510;51.068;3.872;2022-08-30T02:50:31;17.50;92.30
70145;DHT22;57510;51.068;3.872;2022-08-30T02:52:57;17.50;92.30
70145;DHT22;57510;51.068;3.872;2022-08-30T02:55:22;17.50;92.40
70145;DHT22;57510;51.068;3.872;2022-08-30T02:57:49;17.50;92.40
70145;DHT22;57510;51.068;3.872;2022-08-30T03:00:15;17.40;92.60
70145;DHT22;57510;51.068;3.872;2022-08-30T03:02:42;17.40;92.50
70145;DHT22;57510;51.068;3.872;2022-08-30T03:05:12;17.30;92.60
70145;DHT22;57510;51.068;3.872;2022-08-30T03:07:38;17.30;92.60
70145;DHT22;57510;51.068;3.872;2022-08-30T03:10:05;17.30;92.60
70145;DHT22;57510;51.068;3.872;2022-08-30T03:12:31;17.30;92.60
70145;DHT22;57510;51.068;3.872;2022-08-30T03:14:57;17.30;92.70
70145;DHT22;57510;51.068;3.872;2022-08-30T03:17:23;17.30;92.70
70145;DHT22;57510;51.068;3.872;2022-08-30T03:19:48;17.30;92.70
70145;DHT22;57510;51.068;3.872;2022-08-30T03:22:14;17.30;92.60
70145;DHT22;57510;51.068;3.872;2022-08-30T03:24:40;17.30;92.60
70145;DHT22;57510;51.068;3.872;2022-08-30T03:27:09;17.30;92.60
70145;DHT22;57510;51.068;3.872;2022-08-30T03:29:35;17.30;92.60
70145;DHT22;57510;51.068;3.872;2022-08-30T03:32:00;17.30;92.70
70145;DHT22;57510;51.068;3.872;2022-08-30T03:34:26;17.30;92.70
70145;DHT22;57510;51.068;3.872;2022-08-30T03:36:53;17.30;92.70
70145;DHT22;57510;51.068;3.872;2022-08-30T03:39:18;17.40;92.60
70145;DHT22;57510;51.068;3.872;2022-08-30T03:41:44;17.40;92.50
70145;DHT22;57510;51.068;3.872;2022-08-30T03:44:10;17.30;92.50
70145;DHT22;57510;51.068;3.872;2022-08-30T03:46:36;17.30;92.50
70145;DHT22;57510;51.068;3.872;2022-08-30T03:49:03;17.30;92.50
70145;DHT22;57510;51.068;3.872;2022-08-30T03:51:28;17.30;92.50
70145;DHT22;57510;51.068;3.872;2022-08-30T03:53:54;17.30;92.50
70145;DHT22;57510;51.068;3.872;2022-08-30T03:56:20;17.30;92.50
70145;DHT22;57510;51.068;3.872;2022-08-30T03:58:45;17.30;92.50
70145;DHT22;57510;51.068;3.872;2022-08-30T04:01:11;17.20;92.60
70145;DHT22;57510;51.068;3.872;2022-08-30T04:03:36;17.20;92.50
70145;DHT22;57510;51.068;3.872;2022-08-30T04:06:02;17.20;92.50
70145;DHT22;57510;51.068;3.872;2022-08-30T04:08:28;17.20;92.50
70145;DHT22;57510;51.068;3.872;2022-08-30T04:10:53;17.20;92.70
70145;DHT22;57510;51.068;3.872;2022-08-30T04:13:22;17.20;92.60
70145;DHT22;57510;51.068;3.872;2022-08-30T04:15:48;17.20;92.60
70145;DHT22;57510;51.068;3.872;2022-08-30T04:18:14;17.20;92.60
70145;DHT22;57510;51.068;3.872;2022-08-30T04:20:40;17.20;92.50
70145;DHT22;57510;51.068;3.872;2022-08-30T04:23:06;17.20;92.50
70145;DHT22;57510;51.068;3.872;2022-08-30T04:25:35;17.20;92.40
70145;DHT22;57510;51.068;3.872;2022-08-30T04:28:02;17.20;92.50
70145;DHT22;57510;51.068;3.872;2022-08-30T04:30:27;17.10;92.50
70145;DHT22;57510;51.068;3.872;2022-08-30T04:32:53;17.10;92.60
70145;DHT22;57510;51.068;3.872;2022-08-30T04:35:19;17.10;92.50
70145;DHT22;57510;51.068;3.872;2022-08-30T04:37:44;17.20;92.50
70145;DHT22;57510;51.068;3.872;2022-08-30T04:40:10;17.10;92.50
70145;DHT22;57510;51.068;3.872;2022-08-30T04:42:36;17.20;92.60
70145;DHT22;57510;51.068;3.872;2022-08-30T04:45:05;17.20;92.60
70145;DHT22;57510;51.068;3.872;2022-08-30T04:47:32;17.20;92.60
70145;DHT22;57510;51.068;3.872;2022-08-30T04:49:57;17.20;92.70
70145;DHT22;57510;51.068;3.872;2022-08-30T04:52:23;17.20;92.70
70145;DHT22;57510;51.068;3.872;2022-08-30T04:54:57;17.20;92.60
70145;DHT22;57510;51.068;3.872;2022-08-30T04:57:24;17.20;92.60
70145;DHT22;57510;51.068;3.872;2022-08-30T04:59:50;17.20;92.60
70145;DHT22;57510;51.068;3.872;2022-08-30T05:02:15;17.20;92.60
70145;DHT22;57510;51.068;3.872;2022-08-30T05:04:41;17.20;92.60
70145;DHT22;57510;51.068;3.872;2022-08-30T05:07:27;17.20;92.70
70145;DHT22;57510;51.068;3.872;2022-08-30T05:09:53;17.20;92.70
70145;DHT22;57510;51.068;3.872;2022-08-30T05:12:20;17.20;92.60
70145;DHT22;57510;51.068;3.872;2022-08-30T05:14:46;17.30;92.60
70145;DHT22;57510;51.068;3.872;2022-08-30T05:17:11;17.30;92.70
70145;DHT22;57510;51.068;3.872;2022-08-30T05:19:37;17.30;92.50
70145;DHT22;57510;51.068;3.872;2022-08-30T05:22:02;17.30;92.40
70145;DHT22;57510;51.068;3.872;2022-08-30T05:24:28;17.40;92.40
70145;DHT22;57510;51.068;3.872;2022-08-30T05:26:54;17.40;92.30
70145;DHT22;57510;51.068;3.872;2022-08-30T05:29:19;17.40;92.30
70145;DHT22;57510;51.068;3.872;2022-08-30T05:31:45;17.40;92.40
70145;DHT22;57510;51.068;3.872;2022-08-30T05:34:10;17.30;92.50
70145;DHT22;57510;51.068;3.872;2022-08-30T05:36:36;17.30;92.50
70145;DHT22;57510;51.068;3.872;2022-08-30T05:39:06;17.30;92.50
70145;DHT22;57510;51.068;3.872;2022-08-30T05:41:32;17.30;92.40
70145;DHT22;57510;51.068;3.872;2022-08-30T05:43:58;17.40;92.40
70145;DHT22;57510;51.068;3.872;2022-08-30T05:46:25;17.40;92.30
70145;DHT22;57510;51.068;3.872;2022-08-30T05:48:54;17.50;92.30
70145;DHT22;57510;51.068;3.872;2022-08-30T05:51:21;17.50;92.20
70145;DHT22;57510;51.068;3.872;2022-08-30T05:53:47;17.70;92.10
70145;DHT22;57510;51.068;3.872;2022-08-30T05:56:15;17.70;92.00
70145;DHT22;57510;51.068;3.872;2022-08-30T05:58:41;17.70;92.00
70145;DHT22;57510;51.068;3.872;2022-08-30T06:01:19;17.70;92.00
70145;DHT22;57510;51.068;3.872;2022-08-30T06:03:45;17.70;91.90
70145;DHT22;57510;51.068;3.872;2022-08-30T06:06:11;17.80;91.90
70145;DHT22;57510;51.068;3.872;2022-08-30T06:08:41;17.80;91.90
70145;DHT22;57510;51.068;3.872;2022-08-30T06:11:10;17.90;91.80
70145;DHT22;57510;51.068;3.872;2022-08-30T06:13:35;17.90;91.70
70145;DHT22;57510;51.068;3.872;2022-08-30T06:16:01;18.00;91.60
70145;DHT22;57510;51.068;3.872;2022-08-30T06:18:27;18.00;91.60
70145;DHT22;57510;51.068;3.872;2022-08-30T06:20:53;18.10;91.50
70145;DHT22;57510;51.068;3.872;2022-08-30T06:23:19;18.20;91.40
70145;DHT22;57510;51.068;3.872;2022-08-30T06:25:44;18.30;91.20
70145;DHT22;57510;51.068;3.872;2022-08-30T06:28:13;18.30;91.20
70145;DHT22;57510;51.068;3.872;2022-08-30T06:30:40;18.40;91.10
70145;DHT22;57510;51.068;3.872;2022-08-30T06:33:06;18.50;91.00
70145;DHT22;57510;51.068;3.872;2022-08-30T06:35:31;18.60;90.90
70145;DHT22;57510;51.068;3.872;2022-08-30T06:37:57;18.70;90.70
70145;DHT22;57510;51.068;3.872;2022-08-30T06:40:23;18.70;90.60
70145;DHT22;57510;51.068;3.872;2022-08-30T06:42:49;18.70;90.50
70145;DHT22;57510;51.068;3.872;2022-08-30T06:45:16;18.70;90.50
70145;DHT22;57510;51.068;3.872;2022-08-30T06:47:42;18.70;90.50
70145;DHT22;57510;51.068;3.872;2022-08-30T06:50:09;18.80;90.40
70145;DHT22;57510;51.068;3.872;2022-08-30T06:52:36;18.80;90.30
70145;DHT22;57510;51.068;3.872;2022-08-30T06:55:02;18.90;90.30
70145;DHT22;57510;51.068;3.872;2022-08-30T06:57:28;19.10;90.20
70145;DHT22;57510;51.068;3.872;2022-08-30T06:59:54;19.10;89.90
70145;DHT22;57510;51.068;3.872;2022-08-30T07:02:21;19.10;89.70
70145;DHT22;57510;51.068;3.872;2022-08-30T07:04:47;19.30;89.50
70145;DHT22;57510;51.068;3.872;2022-08-30T07:07:13;19.40;88.90
70145;DHT22;57510;51.068;3.872;2022-08-30T07:09:38;19.50;88.40
70145;DHT22;57510;51.068;3.872;2022-08-30T07:12:10;19.70;88.10
70145;DHT22;57510;51.068;3.872;2022-08-30T07:14:37;19.80;87.50
70145;DHT22;57510;51.068;3.872;2022-08-30T07:17:03;20.00;87.50
70145;DHT22;57510;51.068;3.872;2022-08-30T07:19:49;19.90;86.90
70145;DHT22;57510;51.068;3.872;2022-08-30T07:22:15;20.00;86.70
70145;DHT22;57510;51.068;3.872;2022-08-30T07:24:41;20.00;86.70
70145;DHT22;57510;51.068;3.872;2022-08-30T07:27:07;20.10;86.50
70145;DHT22;57510;51.068;3.872;2022-08-30T07:29:32;20.00;86.40
70145;DHT22;57510;51.068;3.872;2022-08-30T07:31:58;19.90;86.50
70145;DHT22;57510;51.068;3.872;2022-08-30T07:34:23;20.00;86.30
70145;DHT22;57510;51.068;3.872;2022-08-30T07:36:49;20.20;86.30
70145;DHT22;57510;51.068;3.872;2022-08-30T07:39:15;20.30;85.60
70145;DHT22;57510;51.068;3.872;2022-08-30T07:41:41;20.60;85.20
70145;DHT22;57510;51.068;3.872;2022-08-30T07:44:10;20.70;84.70
70145;DHT22;57510;51.068;3.872;2022-08-30T07:46:37;20.90;84.30
70145;DHT22;57510;51.068;3.872;2022-08-30T07:49:02;21.10;83.60
70145;DHT22;57510;51.068;3.872;2022-08-30T07:51:28;21.30;83.20
70145;DHT22;57510;51.068;3.872;2022-08-30T07:53:54;21.20;82.40
70145;DHT22;57510;51.068;3.872;2022-08-30T07:56:20;21.40;82.00
70145;DHT22;57510;51.068;3.872;2022-08-30T07:58:47;21.60;82.20
70145;DHT22;57510;51.068;3.872;2022-08-30T08:01:12;21.80;81.50
70145;DHT22;57510;51.068;3.872;2022-08-30T08:03:39;21.90;80.90
70145;DHT22;57510;51.068;3.872;2022-08-30T08:06:05;22.20;80.40
70145;DHT22;57510;51.068;3.872;2022-08-30T08:08:31;22.20;79.90
70145;DHT22;57510;51.068;3.872;2022-08-30T08:10:57;22.30;79.80
70145;DHT22;57510;51.068;3.872;2022-08-30T08:13:30;22.40;79.70
70145;DHT22;57510;51.068;3.872;2022-08-30T08:15:55;22.50;79.30
70145;DHT22;57510;51.068;3.872;2022-08-30T08:18:21;22.80;78.80
70145;DHT22;57510;51.068;3.872;2022-08-30T08:20:47;22.70;77.80
70145;DHT22;57510;51.068;3.872;2022-08-30T08:23:18;22.60;78.10
70145;DHT22;57510;51.068;3.872;2022-08-30T08:25:43;22.50;77.70
70145;DHT22;57510;51.068;3.872;2022-08-30T08:28:09;22.40;77.60
70145;DHT22;57510;51.068;3.872;2022-08-30T08:33:04;22.70;77.50
70145;DHT22;57510;51.068;3.872;2022-08-30T08:35:30;22.70;76.10
70145;DHT22;57510;51.068;3.872;2022-08-30T08:38:03;22.70;77.00
70145;DHT22;57510;51.068;3.872;2022-08-30T08:40:29;22.80;76.60
70145;DHT22;57510;51.068;3.872;2022-08-30T08:51:02;22.90;74.60
70145;DHT22;57510;51.068;3.872;2022-08-30T08:54:10;23.10;74.80
70145;DHT22;57510;51.068;3.872;2022-08-30T08:56:42;23.30;73.80
70145;DHT22;57510;51.068;3.872;2022-08-30T08:59:09;23.20;73.80
70145;DHT22;57510;51.068;3.872;2022-08-30T09:01:40;23.30;73.80
70145;DHT22;57510;51.068;3.872;2022-08-30T09:04:29;23.20;73.30
70145;DHT22;57510;51.068;3.872;2022-08-30T09:07:06;23.10;73.30
70145;DHT22;57510;51.068;3.872;2022-08-30T09:09:35;23.40;73.60
70145;DHT22;57510;51.068;3.872;2022-08-30T09:12:01;23.70;73.20
70145;DHT22;57510;51.068;3.872;2022-08-30T09:14:29;23.60;72.30
70145;DHT22;57510;51.068;3.872;2022-08-30T09:22:15;23.90;71.50
70145;DHT22;57510;51.068;3.872;2022-08-30T09:24:43;24.10;71.60
70145;DHT22;57510;51.068;3.872;2022-08-30T09:27:13;24.10;71.10
70145;DHT22;57510;51.068;3.872;2022-08-30T09:29:48;24.20;70.80
70145;DHT22;57510;51.068;3.872;2022-08-30T09:32:18;24.40;70.60
70145;DHT22;57510;51.068;3.872;2022-08-30T09:34:47;24.50;70.30
70145;DHT22;57510;51.068;3.872;2022-08-30T09:40:12;24.60;69.30
70145;DHT22;57510;51.068;3.872;2022-08-30T09:42:57;24.30;69.60
70145;DHT22;57510;51.068;3.872;2022-08-30T09:45:28;24.30;69.80
70145;DHT22;57510;51.068;3.872;2022-08-30T09:50:36;24.30;69.30
70145;DHT22;57510;51.068;3.872;2022-08-30T09:53:14;24.10;69.70
70145;DHT22;57510;51.068;3.872;2022-08-30T10:01:15;24.20;69.80
70145;DHT22;57510;51.068;3.872;2022-08-30T10:03:55;24.50;69.10
70145;DHT22;57510;51.068;3.872;2022-08-30T10:11:45;25.30;67.70
70145;DHT22;57510;51.068;3.872;2022-08-30T10:17:01;25.50;66.70
70145;DHT22;57510;51.068;3.872;2022-08-30T10:22:11;25.80;65.90
70145;DHT22;57510;51.068;3.872;2022-08-30T10:27:27;25.60;65.80
70145;DHT22;57510;51.068;3.872;2022-08-30T10:30:04;25.50;65.90
70145;DHT22;57510;51.068;3.872;2022-08-30T10:32:34;25.50;65.70
70145;DHT22;57510;51.068;3.872;2022-08-30T10:35:05;25.50;65.20
70145;DHT22;57510;51.068;3.872;2022-08-30T10:37:33;25.50;65.20
70145;DHT22;57510;51.068;3.872;2022-08-30T10:45:49;25.20;65.00
70145;DHT22;57510;51.068;3.872;2022-08-30T10:48:17;25.20;65.10
70145;DHT22;57510;51.068;3.872;2022-08-30T10:50:47;25.30;64.90
70145;DHT22;57510;51.068;3.872;2022-08-30T10:55:50;25.50;65.00
70145;DHT22;57510;51.068;3.872;2022-08-30T10:58:17;25.40;64.00
70145;DHT22;57510;51.068;3.872;2022-08-30T11:06:52;25.40;63.80
70145;DHT22;57510;51.068;3.872;2022-08-30T11:09:38;25.40;64.00
70145;DHT22;57510;51.068;3.872;2022-08-30T11:14:52;25.40;63.40
70145;DHT22;57510;51.068;3.872;2022-08-30T11:17:24;25.50;63.80
70145;DHT22;57510;51.068;3.872;2022-08-30T11:19:50;25.70;62.90
70145;DHT22;57510;51.068;3.872;2022-08-30T11:22:21;25.70;64.10
70145;DHT22;57510;51.068;3.872;2022-08-30T11:32:59;25.80;62.50
70145;DHT22;57510;51.068;3.872;2022-08-30T11:35:39;25.90;61.80
70145;DHT22;57510;51.068;3.872;2022-08-30T11:38:18;25.90;60.90
70145;DHT22;57510;51.068;3.872;2022-08-30T11:40:46;26.00;61.00
70145;DHT22;57510;51.068;3.872;2022-08-30T11:46:14;26.30;60.70
70145;DHT22;57510;51.068;3.872;2022-08-30T11:48:47;26.50;60.00
70145;DHT22;57510;51.068;3.872;2022-08-30T11:53:47;26.70;59.30
70145;DHT22;57510;51.068;3.872;2022-08-30T11:56:18;26.70;59.70
70145;DHT22;57510;51.068;3.872;2022-08-30T11:58:47;26.90;60.30
70145;DHT22;57510;51.068;3.872;2022-08-30T12:03:43;26.90;58.10
70145;DHT22;57510;51.068;3.872;2022-08-30T12:06:09;26.80;58.60
70145;DHT22;57510;51.068;3.872;2022-08-30T12:08:53;26.90;57.80
70145;DHT22;57510;51.068;3.872;2022-08-30T12:16:19;26.90;57.90
70145;DHT22;57510;51.068;3.872;2022-08-30T12:24:00;26.50;56.40
70145;DHT22;57510;51.068;3.872;2022-08-30T12:26:29;26.60;56.90
70145;DHT22;57510;51.068;3.872;2022-08-30T12:31:55;26.70;56.70
70145;DHT22;57510;51.068;3.872;2022-08-30T12:34:23;26.80;56.20
70145;DHT22;57510;51.068;3.872;2022-08-30T12:36:55;26.80;57.40
70145;DHT22;57510;51.068;3.872;2022-08-30T12:39:26;27.00;56.30
70145;DHT22;57510;51.068;3.872;2022-08-30T12:41:52;27.10;56.30
70145;DHT22;57510;51.068;3.872;2022-08-30T12:44:25;27.30;56.60
70145;DHT22;57510;51.068;3.872;2022-08-30T12:46:53;27.40;55.90
70145;DHT22;57510;51.068;3.872;2022-08-30T12:49:21;27.70;55.80
70145;DHT22;57510;51.068;3.872;2022-08-30T12:51:48;28.00;55.20
70145;DHT22;57510;51.068;3.872;2022-08-30T13:02:05;28.60;54.00
70145;DHT22;57510;51.068;3.872;2022-08-30T13:04:31;28.80;54.10
70145;DHT22;57510;51.068;3.872;2022-08-30T13:06:57;28.90;52.60
70145;DHT22;57510;51.068;3.872;2022-08-30T13:09:25;28.90;52.20
70145;DHT22;57510;51.068;3.872;2022-08-30T13:11:51;29.20;53.20
70145;DHT22;57510;51.068;3.872;2022-08-30T13:14:18;29.20;52.00
70145;DHT22;57510;51.068;3.872;2022-08-30T13:16:47;29.00;51.10
70145;DHT22;57510;51.068;3.872;2022-08-30T13:21:51;28.80;52.00
70145;DHT22;57510;51.068;3.872;2022-08-30T13:24:18;28.70;51.60
70145;DHT22;57510;51.068;3.872;2022-08-30T13:26:43;28.60;52.70
70145;DHT22;57510;51.068;3.872;2022-08-30T13:29:17;28.80;51.90
70145;DHT22;57510;51.068;3.872;2022-08-30T13:31:43;29.10;52.20
70145;DHT22;57510;51.068;3.872;2022-08-30T13:34:09;29.30;51.60
70145;DHT22;57510;51.068;3.872;2022-08-30T13:36:42;29.20;50.60
70145;DHT22;57510;51.068;3.872;2022-08-30T13:39:09;29.30;50.30
70145;DHT22;57510;51.068;3.872;2022-08-30T13:41:36;29.50;50.40
70145;DHT22;57510;51.068;3.872;2022-08-30T13:44:04;29.30;50.70
70145;DHT22;57510;51.068;3.872;2022-08-30T13:46:31;29.30;50.00
70145;DHT22;57510;51.068;3.872;2022-08-30T13:49:04;29.40;50.20
70145;DHT22;57510;51.068;3.872;2022-08-30T13:51:30;29.20;50.00
70145;DHT22;57510;51.068;3.872;2022-08-30T13:53:56;29.50;50.10
70145;DHT22;57510;51.068;3.872;2022-08-30T13:56:25;29.60;49.40
70145;DHT22;57510;51.068;3.872;2022-08-30T13:58:52;29.20;49.60
70145;DHT22;57510;51.068;3.872;2022-08-30T14:01:18;29.40;50.10
70145;DHT22;57510;51.068;3.872;2022-08-30T14:03:43;29.40;49.70
70145;DHT22;57510;51.068;3.872;2022-08-30T14:06:09;29.50;49.60
70145;DHT22;57510;51.068;3.872;2022-08-30T14:08:34;29.20;49.80
70145;DHT22;57510;51.068;3.872;2022-08-30T14:11:02;29.50;50.30
70145;DHT22;57510;51.068;3.872;2022-08-30T14:13:29;29.60;49.30
70145;DHT22;57510;51.068;3.872;2022-08-30T14:15:55;29.80;49.50
70145;DHT22;57510;51.068;3.872;2022-08-30T14:18:24;29.90;49.50
70145;DHT22;57510;51.068;3.872;2022-08-30T14:20:53;30.00;49.40
70145;DHT22;57510;51.068;3.872;2022-08-30T14:23:19;30.60;48.30
70145;DHT22;57510;51.068;3.872;2022-08-30T14:25:44;31.30;47.00
70145;DHT22;57510;51.068;3.872;2022-08-30T14:28:15;32.50;45.10
70145;DHT22;57510;51.068;3.872;2022-08-30T14:30:41;33.40;44.20
70145;DHT22;57510;51.068;3.872;2022-08-30T14:33:06;35.00;43.50
70145;DHT22;57510;51.068;3.872;2022-08-30T14:35:33;36.20;41.70
70145;DHT22;57510;51.068;3.872;2022-08-30T14:37:59;37.00;41.00
70145;DHT22;57510;51.068;3.872;2022-08-30T14:40:25;37.30;39.40
70145;DHT22;57510;51.068;3.872;2022-08-30T14:42:50;37.40;39.40
70145;DHT22;57510;51.068;3.872;2022-08-30T14:45:16;37.10;38.70
70145;DHT22;57510;51.068;3.872;2022-08-30T14:47:46;35.50;39.10
70145;DHT22;57510;51.068;3.872;2022-08-30T14:50:12;34.90;40.20
70145;DHT22;57510;51.068;3.872;2022-08-30T14:52:37;34.10;40.30
70145;DHT22;57510;51.068;3.872;2022-08-30T14:55:05;33.30;41.00
70145;DHT22;57510;51.068;3.872;2022-08-30T14:57:33;33.00;41.20
70145;DHT22;57510;51.068;3.872;2022-08-30T14:59:59;32.90;41.60
70145;DHT22;57510;51.068;3.872;2022-08-30T15:02:34;33.10;41.40
70145;DHT22;57510;51.068;3.872;2022-08-30T15:05:02;33.50;40.90
70145;DHT22;57510;51.068;3.872;2022-08-30T15:07:28;33.60;40.60
70145;DHT22;57510;51.068;3.872;2022-08-30T15:10:06;32.50;41.40
70145;DHT22;57510;51.068;3.872;2022-08-30T15:12:33;31.50;42.40
70145;DHT22;57510;51.068;3.872;2022-08-30T15:14:58;31.60;42.80
70145;DHT22;57510;51.068;3.872;2022-08-30T15:17:24;32.50;42.20
70145;DHT22;57510;51.068;3.872;2022-08-30T15:22:25;32.90;41.20
70145;DHT22;57510;51.068;3.872;2022-08-30T15:24:51;33.70;40.40
70145;DHT22;57510;51.068;3.872;2022-08-30T15:27:16;33.60;40.80
70145;DHT22;57510;51.068;3.872;2022-08-30T15:29:42;33.10;40.90
70145;DHT22;57510;51.068;3.872;2022-08-30T15:34:37;34.80;39.30
70145;DHT22;57510;51.068;3.872;2022-08-30T15:37:04;33.70;39.70
70145;DHT22;57510;51.068;3.872;2022-08-30T15:39:31;34.30;39.80
70145;DHT22;57510;51.068;3.872;2022-08-30T15:41:57;34.80;38.80
70145;DHT22;57510;51.068;3.872;2022-08-30T15:44:30;34.30;39.20
70145;DHT22;57510;51.068;3.872;2022-08-30T15:46:56;34.60;39.30
70145;DHT22;57510;51.068;3.872;2022-08-30T15:49:22;34.60;39.00
70145;DHT22;57510;51.068;3.872;2022-08-30T15:51:48;34.80;39.90
70145;DHT22;57510;51.068;3.872;2022-08-30T15:54:17;34.40;38.70
70145;DHT22;57510;51.068;3.872;2022-08-30T15:56:43;33.50;39.70
70145;DHT22;57510;51.068;3.872;2022-08-30T15:59:09;33.80;39.30
70145;DHT22;57510;51.068;3.872;2022-08-30T16:01:35;33.80;39.10
70145;DHT22;57510;51.068;3.872;2022-08-30T16:04:03;33.70;38.70
70145;DHT22;57510;51.068;3.872;2022-08-30T16:06:31;33.30;39.20
70145;DHT22;57510;51.068;3.872;2022-08-30T16:08:56;33.50;39.50
70145;DHT22;57510;51.068;3.872;2022-08-30T16:11:22;32.30;40.10
70145;DHT22;57510;51.068;3.872;2022-08-30T16:13:49;31.30;41.30
70145;DHT22;57510;51.068;3.872;2022-08-30T16:16:15;30.90;42.10
70145;DHT22;57510;51.068;3.872;2022-08-30T16:18:42;30.60;42.10
70145;DHT22;57510;51.068;3.872;2022-08-30T16:21:29;30.20;42.80
70145;DHT22;57510;51.068;3.872;2022-08-30T16:23:55;29.90;43.20
70145;DHT22;57510;51.068;3.872;2022-08-30T16:26:21;29.30;43.30
70145;DHT22;57510;51.068;3.872;2022-08-30T16:28:47;28.50;44.50
70145;DHT22;57510;51.068;3.872;2022-08-30T16:31:13;28.30;44.90
70145;DHT22;57510;51.068;3.872;2022-08-30T16:33:40;28.10;45.00
70145;DHT22;57510;51.068;3.872;2022-08-30T16:36:05;28.10;45.20
70145;DHT22;57510;51.068;3.872;2022-08-30T16:38:31;28.10;44.90
70145;DHT22;57510;51.068;3.872;2022-08-30T16:41:01;27.90;45.20
70145;DHT22;57510;51.068;3.872;2022-08-30T16:43:27;27.50;46.50
70145;DHT22;57510;51.068;3.872;2022-08-30T16:45:53;27.20;46.10
70145;DHT22;57510;51.068;3.872;2022-08-30T16:48:18;27.10;46.30
70145;DHT22;57510;51.068;3.872;2022-08-30T16:50:47;27.10;46.30
70145;DHT22;57510;51.068;3.872;2022-08-30T16:53:12;26.90;46.50
70145;DHT22;57510;51.068;3.872;2022-08-30T16:55:39;26.90;46.80
70145;DHT22;57510;51.068;3.872;2022-08-30T16:58:05;26.90;46.80
70145;DHT22;57510;51.068;3.872;2022-08-30T17:00:31;26.90;46.60
70145;DHT22;57510;51.068;3.872;2022-08-30T17:02:57;26.80;47.00
70145;DHT22;57510;51.068;3.872;2022-08-30T17:05:23;26.70;47.00
70145;DHT22;57510;51.068;3.872;2022-08-30T17:07:49;26.50;47.10
70145;DHT22;57510;51.068;3.872;2022-08-30T17:10:15;26.50;47.20
70145;DHT22;57510;51.068;3.872;2022-08-30T17:12:43;26.50;47.00
70145;DHT22;57510;51.068;3.872;2022-08-30T17:15:10;26.20;47.50
70145;DHT22;57510;51.068;3.872;2022-08-30T17:17:36;26.20;47.80